Time;durP1;ratioP1;P1;durP2;ratioP2;P2;SDS_P1;SDS_P2;PMS_P1;PMS_P2;Temp;Humidity;BMP_temperature;BMP_pressure;BME280_temperature;BME280_humidity;BME280_pressure;Samples;Min_cycle;Max_cycle;Signal;HPM_P1;HPM_P2
2023/09/07 05:09:29;;;;;;;;;;;;;;;;;;6282368;22;19927;-94
2023/09/07 05:11:55;;;;;;;;;;;;;;;;;;6256800;22;19929;-94
2023/09/07 06:10:00;;;;;;;;;;;;;;;;;;;;;
2023/09/07 06:24:09;;;;;;;;;;;;;;;;;;;;;
2023/09/07 06:29:21;;;;;;;;;;;;;;;;;;5989784;24;19959;-92
2023/09/07 06:31:49;;;;;;;;;;;;;;;;;;5984339;23;19946;-94
2023/09/07 06:34:15;;;;;;;;;;;;;;;;;;5992281;23;19910;-96
2023/09/07 06:37:03;;;;;;;;;;;;;;;;;;6073001;23;20261;-96
2023/09/07 06:39:35;;;;;;;;;;;;;;;;;;6091820;23;19904;-95
2023/09/07 06:44:48;;;;;;;;;;;;;;;;;;6188874;22;19976;-96
2023/09/07 06:47:17;;;;;;;;;;;;;;;;;;6260637;22;19887;-96
2023/09/07 06:49:49;;;;;;;;;;;;;;;;;;6255078;22;19986;-96
2023/09/07 06:52:15;;;;;;;;;;;;;;;;;;6254031;22;19921;-96
2023/09/07 06:54:44;;;;;;;;;;;;;;;;;;6256319;22;19951;-96
2023/09/07 07:05:43;;;;;;;;;;;;;;;;;;6271842;22;19918;-95
2023/09/07 07:08:28;;;;;;;;;;;;;;;;;;;;;
2023/09/07 07:18:43;;;;;;;;;;;;;;;;;;6252163;23;19926;-94
2023/09/07 07:21:12;;;;;;;;;;;;;;;;;;6254600;23;19899;-94
2023/09/07 07:23:47;;;;;;;;;;;;;;;;;;6251173;23;19904;-96
2023/09/07 07:37:43;;;;;;;;;;;;;;;;;;6281410;22;20241;-96
2023/09/07 07:40:15;;;;;;;;;;;;;;;;;;6253522;22;20025;-95
2023/09/07 07:42:41;;;;;;;;;;;;;;;;;;6253957;22;19899;-93
2023/09/07 07:45:10;;;;;;;;;;;;;;;;;;6218208;23;19994;-95
2023/09/07 07:47:36;;;;;;;;;;;;;;;;;;6192207;23;20349;-96
2023/09/07 07:50:03;;;;;;;;;;;;;;;;;;6191938;23;19927;-91
2023/09/07 07:52:38;;;;;;;;;;;;;;;;;;6184277;23;19943;-94
2023/09/07 07:55:18;;;;;;;;;;;;;;;;;;6212833;23;19926;-92
2023/09/07 07:57:44;;;;;;;;;;;;;;;;;;6168341;23;19904;-95
2023/09/07 08:00:10;;;;;;;;;;;;;;;;;;6146269;23;19919;-92
2023/09/07 08:02:49;;;;;;;;;;;;;;;;;;6138116;23;19905;-96
2023/09/07 08:19:24;;;;;;;;;;;;;;;;;;6281395;22;19947;-95
2023/09/07 08:21:53;;;;;;;;;;;;;;;;;;6270390;22;19899;-95
2023/09/07 08:24:35;;;;;;;;;;;;;;;;;;6279484;22;19911;-93
2023/09/07 08:35:45;;;;;;;;;;;;;;;;;;6278804;22;19919;-94
2023/09/07 08:38:19;;;;;;;;;;;;;;;;;;6255211;22;19951;-96
2023/09/07 08:46:07;;;;;;;;;;;;;;;;;;6264695;22;19915;-95
2023/09/07 08:48:36;;;;;;;;;;;;;;;;;;6254962;23;19924;-95
2023/09/07 08:51:17;;;;;;;;;;;;;;;;;;6224384;23;19912;-96
2023/09/07 08:53:46;;;;;;;;;;;;;;;;;;6219463;23;19908;-96
2023/09/07 08:56:15;;;;;;;;;;;;;;;;;;6218418;23;19905;-95
2023/09/07 08:58:41;;;;;;;;;;;;;;;;;;6218603;23;19904;-95
2023/09/07 11:01:34;;;;;;;;;;;;;;;;;;6192757;23;19914;-96
2023/09/07 11:07:07;;;;;;;;;;;;;;;;;;6249103;22;19926;-93
2023/09/07 11:22:40;;;;;;;;;;;;;;;;;;6285762;22;20353;-95
2023/09/07 11:25:27;;;;;;;;;;;;;;;;;;6265588;22;19982;-93
2023/09/07 13:22:00;;;;;;;;;;;;;;;;;;6135121;23;20574;-95
2023/09/07 13:24:29;;;;;;;;;;;;;;;;;;6153810;23;19904;-93
2023/09/07 13:26:55;;;;;;;;;;;;;;;;;;6190810;23;19904;-95
2023/09/07 13:29:54;;;;;;;;;;;;;;;;;;6190215;23;19904;-94
2023/09/07 13:34:59;;;;;;;;;;;;;;;;;;6185298;23;19971;-94
2023/09/07 13:37:27;;;;;;;;;;;;;;;;;;6185922;23;20408;-94
2023/09/07 13:39:53;;;;;;;;;;;;;;;;;;6190191;23;20563;-96
2023/09/07 13:42:31;;;;;;;;;;;;;;;;;;6223743;22;19908;-95
2023/09/07 13:44:57;;;;;;;;;;;;;;;;;;6251368;22;19904;-95
2023/09/07 13:47:23;;;;;;;;;;;;;;;;;;6251721;22;20236;-95
2023/09/07 13:49:52;;;;;;;;;;;;;;;;;;6251522;22;19949;-96
2023/09/07 13:52:18;;;;;;;;;;;;;;;;;;6268235;22;19911;-95
2023/09/07 13:54:45;;;;;;;;;;;;;;;;;;6263487;22;19942;-93
2023/09/07 13:57:14;;;;;;;;;;;;;;;;;;6253023;22;19904;-95
2023/09/07 13:59:43;;;;;;;;;;;;;;;;;;6251346;22;19978;-93
2023/09/07 14:02:12;;;;;;;;;;;;;;;;;;6251298;22;19904;-94
2023/09/07 14:07:16;;;;;;;;;;;;;;;;;;6276573;22;19972;-94
2023/09/07 14:09:42;;;;;;;;;;;;;;;;;;6250961;22;19903;-95
2023/09/07 14:12:08;;;;;;;;;;;;;;;;;;6250883;22;19911;-96
2023/09/07 14:28:12;;;;;;;;;;;;;;;;;;6257144;23;19955;-94
2023/09/07 14:30:43;;;;;;;;;;;;;;;;;;6248798;23;19903;-95
2023/09/07 14:44:04;;;;;;;;;;;;;;;;;;6194984;23;19904;-96
2023/09/07 14:46:30;;;;;;;;;;;;;;;;;;6255488;22;19922;-95
2023/09/07 14:49:00;;;;;;;;;;;;;;;;;;6254495;22;20428;-96
2023/09/07 14:51:34;;;;;;;;;;;;;;;;;;6216665;23;20262;-94
2023/09/07 14:54:00;;;;;;;;;;;;;;;;;;6191594;23;19904;-94
2023/09/07 14:56:36;;;;;;;;;;;;;;;;;;;;;
2023/09/07 14:59:03;;;;;;;;;;;;;;;;;;6218660;23;19991;-96
2023/09/07 15:01:29;;;;;;;;;;;;;;;;;;6192748;23;19904;-96
2023/09/07 15:03:57;;;;;;;;;;;;;;;;;;6192367;23;20405;-95
2023/09/07 15:06:23;;;;;;;;;;;;;;;;;;6191691;23;19904;-96
2023/09/07 15:08:50;;;;;;;;;;;;;;;;;;6191977;23;19915;-96
2023/09/07 15:11:16;;;;;;;;;;;;;;;;;;6183156;23;20345;-96
2023/09/07 15:13:44;;;;;;;;;;;;;;;;;;6192661;23;19904;-96
2023/09/07 15:16:10;;;;;;;;;;;;;;;;;;6191444;23;19911;-95
2023/09/07 15:18:54;;;;;;;;;;;;;;;;;;6192985;23;19991;-96
2023/09/07 15:21:20;;;;;;;;;;;;;;;;;;6200721;22;19908;-95
2023/09/07 15:23:55;;;;;;;;;;;;;;;;;;6256908;22;19953;-96
2023/09/07 15:26:31;;;;;;;;;;;;;;;;;;;;;
2023/09/07 15:28:58;;;;;;;;;;;;;;;;;;6280526;22;19990;-96
2023/09/07 15:31:24;;;;;;;;;;;;;;;;;;6253492;22;19912;-96
2023/09/07 15:33:56;;;;;;;;;;;;;;;;;;6254501;22;19911;-96
2023/09/07 15:36:32;;;;;;;;;;;;;;;;;;6258692;22;19903;-96
2023/09/07 15:39:04;;;;;;;;;;;;;;;;;;6254511;22;19911;-96
2023/09/07 15:41:34;;;;;;;;;;;;;;;;;;6253070;22;19903;-96
2023/09/07 15:44:03;;;;;;;;;;;;;;;;;;6253564;22;19903;-96
2023/09/07 15:46:29;;;;;;;;;;;;;;;;;;6264522;22;19903;-95
2023/09/07 15:51:31;;;;;;;;;;;;;;;;;;6252601;22;19920;-96
2023/09/07 15:54:04;;;;;;;;;;;;;;;;;;6284809;22;20224;-93
2023/09/07 15:56:30;;;;;;;;;;;;;;;;;;6279486;22;19911;-96
2023/09/07 18:49:48;;;;;;;;;;;;;;;;;;6249902;23;20359;-93
2023/09/07 18:55:11;;;;;;;;;;;;;;;;;;6248413;23;20263;-94
2023/09/07 18:57:38;;;;;;;;;;;;;;;;;;6254574;23;19926;-94
2023/09/07 19:00:05;;;;;;;;;;;;;;;;;;6228201;23;19904;-94
2023/09/07 19:05:16;;;;;;;;;;;;;;;;;;6250798;23;20308;-93
2023/09/07 19:10:28;;;;;;;;;;;;;;;;;;6252778;23;20288;-94
2023/09/07 19:12:54;;;;;;;;;;;;;;;;;;6226292;23;19912;-93
2023/09/07 19:15:20;;;;;;;;;;;;;;;;;;6224383;23;20241;-93
2023/09/07 19:17:53;;;;;;;;;;;;;;;;;;6225582;23;19904;-96
2023/09/07 19:20:28;;;;;;;;;;;;;;;;;;6231695;23;19907;-95
2023/09/07 19:23:07;;;;;;;;;;;;;;;;;;6232620;22;19982;-94
2023/09/07 19:25:34;;;;;;;;;;;;;;;;;;6256405;22;19903;-95
2023/09/07 19:28:06;;;;;;;;;;;;;;;;;;6260362;22;19903;-96
2023/09/07 19:30:38;;;;;;;;;;;;;;;;;;6254085;22;19943;-96
2023/09/07 19:33:07;;;;;;;;;;;;;;;;;;6253698;22;19964;-94
2023/09/07 19:35:36;;;;;;;;;;;;;;;;;;6255845;22;19982;-96
2023/09/07 19:48:43;;;;;;;;;;;;;;;;;;6285673;22;19919;-94
2023/09/07 19:54:01;;;;;;;;;;;;;;;;;;6280383;22;19937;-94
2023/09/07 20:04:48;;;;;;;;;;;;;;;;;;6270288;22;19945;-93
2023/09/07 20:07:14;;;;;;;;;;;;;;;;;;6254948;22;19904;-91
2023/09/07 20:09:40;;;;;;;;;;;;;;;;;;6254248;22;20367;-92
2023/09/07 20:12:06;;;;;;;;;;;;;;;;;;6257876;22;19968;-92
2023/09/07 20:14:34;;;;;;;;;;;;;;;;;;6255094;22;19911;-92
2023/09/07 20:17:00;;;;;;;;;;;;;;;;;;6265419;22;19887;-91
2023/09/07 20:22:22;;;;;;;;;;;;;;;;;;6276863;22;19930;-90
2023/09/07 20:24:48;;;;;;;;;;;;;;;;;;6255631;22;19970;-94
2023/09/07 20:27:14;;;;;;;;;;;;;;;;;;6253276;22;19986;-93
2023/09/07 20:29:40;;;;;;;;;;;;;;;;;;6254135;22;19899;-93
2023/09/07 20:32:06;;;;;;;;;;;;;;;;;;6252018;22;19912;-92
2023/09/07 20:34:32;;;;;;;;;;;;;;;;;;6252988;22;20334;-93
2023/09/07 20:36:58;;;;;;;;;;;;;;;;;;6259959;22;19903;-93
2023/09/07 20:39:27;;;;;;;;;;;;;;;;;;6256456;22;19914;-94
2023/09/07 20:41:59;;;;;;;;;;;;;;;;;;6253871;22;19918;-94
2023/09/07 20:44:25;;;;;;;;;;;;;;;;;;6259641;22;19907;-94
2023/09/07 20:46:51;;;;;;;;;;;;;;;;;;6251673;22;19914;-94
2023/09/07 20:49:17;;;;;;;;;;;;;;;;;;6260599;22;19930;-94
2023/09/07 20:51:43;;;;;;;;;;;;;;;;;;6260150;22;19915;-95
2023/09/07 20:54:09;;;;;;;;;;;;;;;;;;6260198;22;19910;-91
2023/09/07 20:56:38;;;;;;;;;;;;;;;;;;6261833;22;19935;-95
2023/09/07 20:59:04;;;;;;;;;;;;;;;;;;6260698;22;19907;-95
2023/09/07 21:01:39;;;;;;;;;;;;;;;;;;6260871;22;19938;-94
2023/09/07 21:06:50;;;;;;;;;;;;;;;;;;6288723;22;20370;-94
2023/09/07 21:09:31;;;;;;;;;;;;;;;;;;6261206;22;19903;-93
2023/09/07 21:12:09;;;;;;;;;;;;;;;;;;6258948;22;19918;-93
2023/09/07 21:14:38;;;;;;;;;;;;;;;;;;6264321;22;19903;-94
2023/09/07 21:17:11;;;;;;;;;;;;;;;;;;6264895;22;19899;-94
2023/09/07 21:19:40;;;;;;;;;;;;;;;;;;6261240;22;19904;-95
2023/09/07 21:22:06;;;;;;;;;;;;;;;;;;6259973;22;19949;-95
2023/09/07 21:24:38;;;;;;;;;;;;;;;;;;6257800;22;19907;-94
2023/09/07 21:29:49;;;;;;;;;;;;;;;;;;6287691;22;19909;-94
2023/09/07 21:32:15;;;;;;;;;;;;;;;;;;6261092;22;19918;-92
2023/09/07 21:34:41;;;;;;;;;;;;;;;;;;6260551;22;20320;-93
2023/09/07 21:39:33;;;;;;;;;;;;;;;;;;6292001;22;19926;-92
2023/09/07 21:41:59;;;;;;;;;;;;;;;;;;6262739;22;19903;-94
2023/09/07 21:44:40;;;;;;;;;;;;;;;;;;6263703;22;20213;-94
2023/09/07 21:47:09;;;;;;;;;;;;;;;;;;6262839;22;19911;-95
2023/09/07 21:49:35;;;;;;;;;;;;;;;;;;6261394;22;19903;-94
2023/09/07 21:54:49;;;;;;;;;;;;;;;;;;6286282;22;20348;-95
2023/09/07 21:57:23;;;;;;;;;;;;;;;;;;6260568;22;19903;-93
2023/09/07 21:59:59;;;;;;;;;;;;;;;;;;6263234;22;19948;-94
2023/09/07 22:02:28;;;;;;;;;;;;;;;;;;6262028;22;19973;-94
2023/09/07 22:04:53;;;;;;;;;;;;;;;;;;6262149;22;19904;-92
2023/09/07 22:07:19;;;;;;;;;;;;;;;;;;6266888;22;19963;-93
2023/09/07 22:09:48;;;;;;;;;;;;;;;;;;6260468;22;19931;-94
2023/09/07 22:12:18;;;;;;;;;;;;;;;;;;6263620;22;19895;-92
2023/09/07 22:14:43;;;;;;;;;;;;;;;;;;6264217;22;19913;-92
2023/09/07 22:17:11;;;;;;;;;;;;;;;;;;6266618;22;19943;-96
2023/09/07 22:19:40;;;;;;;;;;;;;;;;;;6264173;22;19983;-95
2023/09/07 22:25:01;;;;;;;;;;;;;;;;;;6291710;22;19935;-94
2023/09/07 22:27:27;;;;;;;;;;;;;;;;;;6264623;22;20328;-93
2023/09/07 22:30:00;;;;;;;;;;;;;;;;;;6262371;22;19938;-92
2023/09/07 22:32:26;;;;;;;;;;;;;;;;;;6259931;22;19911;-93
2023/09/07 22:43:07;;;;;;;;;;;;;;;;;;6289131;22;19903;-93
2023/09/07 22:45:43;;;;;;;;;;;;;;;;;;6261814;22;19949;-92
2023/09/07 22:48:12;;;;;;;;;;;;;;;;;;6261453;22;20251;-94
2023/09/07 22:50:38;;;;;;;;;;;;;;;;;;6260686;22;19904;-93
2023/09/07 22:53:10;;;;;;;;;;;;;;;;;;6264099;22;19903;-96
2023/09/07 22:55:36;;;;;;;;;;;;;;;;;;6263401;22;19976;-93
2023/09/07 22:58:02;;;;;;;;;;;;;;;;;;6267221;22;19903;-93
2023/09/07 23:00:42;;;;;;;;;;;;;;;;;;6262272;22;19903;-94
2023/09/07 23:03:08;;;;;;;;;;;;;;;;;;6264303;22;20324;-94
2023/09/07 23:05:40;;;;;;;;;;;;;;;;;;6263719;22;19908;-95
2023/09/07 23:08:12;;;;;;;;;;;;;;;;;;6261868;22;19915;-94
2023/09/07 23:10:44;;;;;;;;;;;;;;;;;;6267936;22;20316;-94
2023/09/07 23:13:11;;;;;;;;;;;;;;;;;;6261371;22;19915;-92
2023/09/07 23:15:47;;;;;;;;;;;;;;;;;;6268141;22;20951;-95
2023/09/07 23:18:16;;;;;;;;;;;;;;;;;;6266919;22;19904;-93
2023/09/07 23:20:45;;;;;;;;;;;;;;;;;;6268507;22;19903;-93
2023/09/07 23:23:11;;;;;;;;;;;;;;;;;;6269924;22;19989;-92
2023/09/07 23:25:37;;;;;;;;;;;;;;;;;;6269148;22;19907;-92
2023/09/07 23:28:04;;;;;;;;;;;;;;;;;;6261789;22;19906;-93
2023/09/07 23:30:48;;;;;;;;;;;;;;;;;;6269617;22;19891;-93
2023/09/07 23:33:17;;;;;;;;;;;;;;;;;;6264967;22;19920;-94
2023/09/07 23:35:43;;;;;;;;;;;;;;;;;;6270828;22;19903;-94
2023/09/07 23:38:17;;;;;;;;;;;;;;;;;;6290857;22;19907;-94
2023/09/07 23:40:43;;;;;;;;;;;;;;;;;;6264247;22;19900;-92
2023/09/07 23:43:15;;;;;;;;;;;;;;;;;;6265953;22;19931;-92
2023/09/07 23:45:44;;;;;;;;;;;;;;;;;;6268834;22;19935;-94
2023/09/07 23:53:18;;;;;;;;;;;;;;;;;;6288107;22;19919;-94
2023/09/07 23:55:47;;;;;;;;;;;;;;;;;;6266474;22;19903;-96
2023/09/07 23:58:13;;;;;;;;;;;;;;;;;;6267366;22;19908;-93
